sensor_id;sensor_type;location;lat;lon;timestamp;temperature;humidity
29353;DHT22;16344;50.364;8.944;2023-04-16T00:02:13;8.90;65.90
29353;DHT22;16344;50.364;8.944;2023-04-16T00:04:39;8.90;69.40
29353;DHT22;16344;50.364;8.944;2023-04-16T00:07:05;9.00;67.70
29353;DHT22;16344;50.364;8.944;2023-04-16T00:09:30;8.90;67.00
29353;DHT22;16344;50.364;8.944;2023-04-16T00:11:55;8.90;69.90
29353;DHT22;16344;50.364;8.944;2023-04-16T00:14:21;8.80;74.00
29353;DHT22;16344;50.364;8.944;2023-04-16T00:16:46;8.80;75.90
29353;DHT22;16344;50.364;8.944;2023-04-16T00:19:12;8.90;76.40
29353;DHT22;16344;50.364;8.944;2023-04-16T00:21:38;9.00;75.60
29353;DHT22;16344;50.364;8.944;2023-04-16T00:24:03;9.00;70.70
29353;DHT22;16344;50.364;8.944;2023-04-16T00:26:29;9.00;67.60
29353;DHT22;16344;50.364;8.944;2023-04-16T00:28:54;8.90;65.20
29353;DHT22;16344;50.364;8.944;2023-04-16T00:31:31;8.90;66.10
29353;DHT22;16344;50.364;8.944;2023-04-16T00:33:57;8.90;67.80
29353;DHT22;16344;50.364;8.944;2023-04-16T00:36:23;8.90;68.90
29353;DHT22;16344;50.364;8.944;2023-04-16T00:38:49;9.00;67.00
29353;DHT22;16344;50.364;8.944;2023-04-16T00:41:15;8.90;67.60
29353;DHT22;16344;50.364;8.944;2023-04-16T00:43:41;8.90;68.40
29353;DHT22;16344;50.364;8.944;2023-04-16T00:46:07;9.00;67.40
29353;DHT22;16344;50.364;8.944;2023-04-16T00:48:37;9.00;67.10
29353;DHT22;16344;50.364;8.944;2023-04-16T00:51:07;9.00;67.50
29353;DHT22;16344;50.364;8.944;2023-04-16T00:53:33;9.10;65.00
29353;DHT22;16344;50.364;8.944;2023-04-16T00:55:59;9.00;63.90
29353;DHT22;16344;50.364;8.944;2023-04-16T00:58:27;9.00;63.50
29353;DHT22;16344;50.364;8.944;2023-04-16T01:00:53;9.10;65.10
29353;DHT22;16344;50.364;8.944;2023-04-16T01:03:19;9.10;63.20
29353;DHT22;16344;50.364;8.944;2023-04-16T01:05:44;9.10;60.20
29353;DHT22;16344;50.364;8.944;2023-04-16T01:08:18;9.10;59.80
29353;DHT22;16344;50.364;8.944;2023-04-16T01:10:43;9.20;61.80
29353;DHT22;16344;50.364;8.944;2023-04-16T01:13:10;9.10;59.40
29353;DHT22;16344;50.364;8.944;2023-04-16T01:15:36;9.00;61.10
29353;DHT22;16344;50.364;8.944;2023-04-16T01:18:01;9.00;63.20
29353;DHT22;16344;50.364;8.944;2023-04-16T01:20:28;9.10;60.30
29353;DHT22;16344;50.364;8.944;2023-04-16T01:22:54;9.00;59.80
29353;DHT22;16344;50.364;8.944;2023-04-16T01:25:19;9.10;60.10
29353;DHT22;16344;50.364;8.944;2023-04-16T01:27:48;9.10;59.10
29353;DHT22;16344;50.364;8.944;2023-04-16T01:30:14;9.10;57.20
29353;DHT22;16344;50.364;8.944;2023-04-16T01:32:39;9.10;59.00
29353;DHT22;16344;50.364;8.944;2023-04-16T01:35:05;9.10;57.90
29353;DHT22;16344;50.364;8.944;2023-04-16T01:37:31;9.00;59.80
29353;DHT22;16344;50.364;8.944;2023-04-16T01:39:56;9.10;59.70
29353;DHT22;16344;50.364;8.944;2023-04-16T01:42:22;9.00;60.20
29353;DHT22;16344;50.364;8.944;2023-04-16T01:44:47;9.00;61.00
29353;DHT22;16344;50.364;8.944;2023-04-16T01:47:13;9.00;62.30
29353;DHT22;16344;50.364;8.944;2023-04-16T01:49:38;9.00;61.10
29353;DHT22;16344;50.364;8.944;2023-04-16T01:52:04;9.00;58.70
29353;DHT22;16344;50.364;8.944;2023-04-16T01:54:30;9.10;60.80
29353;DHT22;16344;50.364;8.944;2023-04-16T01:56:55;9.10;59.40
29353;DHT22;16344;50.364;8.944;2023-04-16T01:59:21;9.10;56.60
29353;DHT22;16344;50.364;8.944;2023-04-16T02:01:46;9.10;57.30
29353;DHT22;16344;50.364;8.944;2023-04-16T02:04:12;9.00;57.60
29353;DHT22;16344;50.364;8.944;2023-04-16T02:06:38;9.00;61.10
29353;DHT22;16344;50.364;8.944;2023-04-16T02:09:03;9.00;63.90
29353;DHT22;16344;50.364;8.944;2023-04-16T02:11:29;9.00;65.90
29353;DHT22;16344;50.364;8.944;2023-04-16T02:13:54;9.00;66.30
29353;DHT22;16344;50.364;8.944;2023-04-16T02:16:20;9.00;64.20
29353;DHT22;16344;50.364;8.944;2023-04-16T02:18:45;8.90;66.30
29353;DHT22;16344;50.364;8.944;2023-04-16T02:21:11;9.00;67.60
29353;DHT22;16344;50.364;8.944;2023-04-16T02:23:36;9.00;63.60
29353;DHT22;16344;50.364;8.944;2023-04-16T02:26:05;9.00;62.50
29353;DHT22;16344;50.364;8.944;2023-04-16T02:28:30;9.00;60.70
29353;DHT22;16344;50.364;8.944;2023-04-16T02:30:56;9.10;59.70
29353;DHT22;16344;50.364;8.944;2023-04-16T02:33:21;9.10;58.10
29353;DHT22;16344;50.364;8.944;2023-04-16T02:35:50;9.10;59.60
29353;DHT22;16344;50.364;8.944;2023-04-16T02:38:15;9.00;58.30
29353;DHT22;16344;50.364;8.944;2023-04-16T02:40:41;9.00;55.90
29353;DHT22;16344;50.364;8.944;2023-04-16T02:43:06;9.00;55.30
29353;DHT22;16344;50.364;8.944;2023-04-16T02:45:32;8.90;52.40
29353;DHT22;16344;50.364;8.944;2023-04-16T02:47:57;8.90;53.70
29353;DHT22;16344;50.364;8.944;2023-04-16T02:50:23;8.80;55.60
29353;DHT22;16344;50.364;8.944;2023-04-16T02:52:49;8.90;55.60
29353;DHT22;16344;50.364;8.944;2023-04-16T02:55:16;8.90;55.40
29353;DHT22;16344;50.364;8.944;2023-04-16T02:57:41;8.80;57.20
29353;DHT22;16344;50.364;8.944;2023-04-16T03:00:07;8.80;56.70
29353;DHT22;16344;50.364;8.944;2023-04-16T03:02:33;8.80;58.10
29353;DHT22;16344;50.364;8.944;2023-04-16T03:04:58;8.70;57.80
29353;DHT22;16344;50.364;8.944;2023-04-16T03:07:24;8.80;57.90
29353;DHT22;16344;50.364;8.944;2023-04-16T03:09:50;8.80;58.10
29353;DHT22;16344;50.364;8.944;2023-04-16T03:12:15;8.70;59.30
29353;DHT22;16344;50.364;8.944;2023-04-16T03:14:41;8.80;59.80
29353;DHT22;16344;50.364;8.944;2023-04-16T03:17:06;8.70;59.20
29353;DHT22;16344;50.364;8.944;2023-04-16T03:19:32;8.70;60.40
29353;DHT22;16344;50.364;8.944;2023-04-16T03:21:57;8.70;62.20
29353;DHT22;16344;50.364;8.944;2023-04-16T03:24:23;8.70;62.50
29353;DHT22;16344;50.364;8.944;2023-04-16T03:26:48;8.60;59.90
29353;DHT22;16344;50.364;8.944;2023-04-16T03:29:14;8.60;64.70
29353;DHT22;16344;50.364;8.944;2023-04-16T03:31:39;8.70;66.40
29353;DHT22;16344;50.364;8.944;2023-04-16T03:34:05;8.70;64.40
29353;DHT22;16344;50.364;8.944;2023-04-16T03:36:31;8.70;63.60
29353;DHT22;16344;50.364;8.944;2023-04-16T03:38:56;8.60;63.90
29353;DHT22;16344;50.364;8.944;2023-04-16T03:41:22;8.60;62.60
29353;DHT22;16344;50.364;8.944;2023-04-16T03:43:47;8.70;61.20
29353;DHT22;16344;50.364;8.944;2023-04-16T03:46:13;8.80;60.00
29353;DHT22;16344;50.364;8.944;2023-04-16T03:48:38;8.80;58.30
29353;DHT22;16344;50.364;8.944;2023-04-16T03:51:04;8.80;55.60
29353;DHT22;16344;50.364;8.944;2023-04-16T03:53:30;8.80;54.70
29353;DHT22;16344;50.364;8.944;2023-04-16T03:55:55;8.80;55.60
29353;DHT22;16344;50.364;8.944;2023-04-16T03:58:21;8.80;58.60
29353;DHT22;16344;50.364;8.944;2023-04-16T04:00:46;8.90;57.10
29353;DHT22;16344;50.364;8.944;2023-04-16T04:03:12;8.90;57.90
29353;DHT22;16344;50.364;8.944;2023-04-16T04:05:41;8.90;56.90
29353;DHT22;16344;50.364;8.944;2023-04-16T04:08:07;8.90;55.50
29353;DHT22;16344;50.364;8.944;2023-04-16T04:10:34;8.90;54.60
29353;DHT22;16344;50.364;8.944;2023-04-16T04:13:02;9.00;53.40
29353;DHT22;16344;50.364;8.944;2023-04-16T04:15:28;9.00;51.50
29353;DHT22;16344;50.364;8.944;2023-04-16T04:17:54;9.00;50.00
29353;DHT22;16344;50.364;8.944;2023-04-16T04:20:19;9.00;47.70
29353;DHT22;16344;50.364;8.944;2023-04-16T04:22:45;9.00;45.30
29353;DHT22;16344;50.364;8.944;2023-04-16T04:25:11;9.00;45.10
29353;DHT22;16344;50.364;8.944;2023-04-16T04:27:36;9.00;44.60
29353;DHT22;16344;50.364;8.944;2023-04-16T04:30:02;9.00;45.90
29353;DHT22;16344;50.364;8.944;2023-04-16T04:32:31;8.90;47.60
29353;DHT22;16344;50.364;8.944;2023-04-16T04:34:57;9.00;50.00
29353;DHT22;16344;50.364;8.944;2023-04-16T04:37:22;9.00;50.00
29353;DHT22;16344;50.364;8.944;2023-04-16T04:39:48;9.00;48.90
29353;DHT22;16344;50.364;8.944;2023-04-16T04:42:15;8.90;49.10
29353;DHT22;16344;50.364;8.944;2023-04-16T04:44:41;8.90;51.50
29353;DHT22;16344;50.364;8.944;2023-04-16T04:47:06;8.90;53.60
29353;DHT22;16344;50.364;8.944;2023-04-16T04:49:32;8.90;54.00
29353;DHT22;16344;50.364;8.944;2023-04-16T04:51:57;8.90;56.30
29353;DHT22;16344;50.364;8.944;2023-04-16T04:54:23;8.90;53.40
29353;DHT22;16344;50.364;8.944;2023-04-16T04:56:48;8.90;54.10
29353;DHT22;16344;50.364;8.944;2023-04-16T04:59:16;8.90;53.90
29353;DHT22;16344;50.364;8.944;2023-04-16T05:01:42;8.90;53.80
29353;DHT22;16344;50.364;8.944;2023-04-16T05:04:07;9.00;52.50
29353;DHT22;16344;50.364;8.944;2023-04-16T05:06:33;9.00;48.50
29353;DHT22;16344;50.364;8.944;2023-04-16T05:08:58;8.90;51.00
29353;DHT22;16344;50.364;8.944;2023-04-16T05:11:24;8.90;55.00
29353;DHT22;16344;50.364;8.944;2023-04-16T05:13:49;8.90;55.40
29353;DHT22;16344;50.364;8.944;2023-04-16T05:16:15;8.80;54.80
29353;DHT22;16344;50.364;8.944;2023-04-16T05:18:40;8.80;53.80
29353;DHT22;16344;50.364;8.944;2023-04-16T05:21:06;8.80;56.90
29353;DHT22;16344;50.364;8.944;2023-04-16T05:23:31;8.90;57.00
29353;DHT22;16344;50.364;8.944;2023-04-16T05:25:57;8.90;57.80
29353;DHT22;16344;50.364;8.944;2023-04-16T05:28:22;8.90;57.70
29353;DHT22;16344;50.364;8.944;2023-04-16T05:30:48;8.90;58.40
29353;DHT22;16344;50.364;8.944;2023-04-16T05:33:13;8.80;59.10
29353;DHT22;16344;50.364;8.944;2023-04-16T05:35:39;8.80;62.00
29353;DHT22;16344;50.364;8.944;2023-04-16T05:38:04;8.80;66.10
29353;DHT22;16344;50.364;8.944;2023-04-16T05:40:30;8.70;70.90
29353;DHT22;16344;50.364;8.944;2023-04-16T05:42:56;8.70;75.00
29353;DHT22;16344;50.364;8.944;2023-04-16T05:45:21;8.80;74.50
29353;DHT22;16344;50.364;8.944;2023-04-16T05:47:47;8.80;74.60
29353;DHT22;16344;50.364;8.944;2023-04-16T05:50:12;8.80;76.40
29353;DHT22;16344;50.364;8.944;2023-04-16T05:52:38;8.90;76.80
29353;DHT22;16344;50.364;8.944;2023-04-16T05:55:04;8.90;73.50
29353;DHT22;16344;50.364;8.944;2023-04-16T05:57:30;8.90;73.20
29353;DHT22;16344;50.364;8.944;2023-04-16T05:59:55;8.90;70.40
29353;DHT22;16344;50.364;8.944;2023-04-16T06:02:21;8.90;71.60
29353;DHT22;16344;50.364;8.944;2023-04-16T06:04:46;8.90;71.50
29353;DHT22;16344;50.364;8.944;2023-04-16T06:07:12;8.90;74.70
29353;DHT22;16344;50.364;8.944;2023-04-16T06:09:37;8.90;77.70
29353;DHT22;16344;50.364;8.944;2023-04-16T06:12:03;8.90;75.70
29353;DHT22;16344;50.364;8.944;2023-04-16T06:14:28;8.90;75.20
29353;DHT22;16344;50.364;8.944;2023-04-16T06:16:54;8.90;76.50
29353;DHT22;16344;50.364;8.944;2023-04-16T06:19:20;9.00;78.60
29353;DHT22;16344;50.364;8.944;2023-04-16T06:21:46;9.00;77.60
29353;DHT22;16344;50.364;8.944;2023-04-16T06:24:11;9.00;73.60
29353;DHT22;16344;50.364;8.944;2023-04-16T06:26:37;9.00;74.40
29353;DHT22;16344;50.364;8.944;2023-04-16T06:29:03;9.00;76.40
29353;DHT22;16344;50.364;8.944;2023-04-16T06:31:29;8.90;79.00
29353;DHT22;16344;50.364;8.944;2023-04-16T06:33:55;8.90;77.70
29353;DHT22;16344;50.364;8.944;2023-04-16T06:36:20;8.90;77.80
29353;DHT22;16344;50.364;8.944;2023-04-16T06:38:46;9.00;75.60
29353;DHT22;16344;50.364;8.944;2023-04-16T06:41:13;9.00;76.20
29353;DHT22;16344;50.364;8.944;2023-04-16T06:43:38;8.90;77.20
29353;DHT22;16344;50.364;8.944;2023-04-16T06:46:04;9.00;82.00
29353;DHT22;16344;50.364;8.944;2023-04-16T06:48:30;9.00;84.00
29353;DHT22;16344;50.364;8.944;2023-04-16T06:50:56;9.00;83.50
29353;DHT22;16344;50.364;8.944;2023-04-16T06:53:22;9.10;85.10
29353;DHT22;16344;50.364;8.944;2023-04-16T06:55:48;9.10;83.40
29353;DHT22;16344;50.364;8.944;2023-04-16T06:58:13;9.10;83.30
29353;DHT22;16344;50.364;8.944;2023-04-16T07:00:39;9.10;85.20
29353;DHT22;16344;50.364;8.944;2023-04-16T07:03:04;9.10;83.20
29353;DHT22;16344;50.364;8.944;2023-04-16T07:05:30;9.20;84.90
29353;DHT22;16344;50.364;8.944;2023-04-16T07:07:56;9.20;82.20
29353;DHT22;16344;50.364;8.944;2023-04-16T07:10:22;9.30;80.50
29353;DHT22;16344;50.364;8.944;2023-04-16T07:12:47;9.30;80.00
29353;DHT22;16344;50.364;8.944;2023-04-16T07:15:13;9.30;81.00
29353;DHT22;16344;50.364;8.944;2023-04-16T07:17:38;9.40;79.70
29353;DHT22;16344;50.364;8.944;2023-04-16T07:20:04;9.40;81.70
29353;DHT22;16344;50.364;8.944;2023-04-16T07:22:30;9.40;80.80
29353;DHT22;16344;50.364;8.944;2023-04-16T07:24:55;9.50;82.60
29353;DHT22;16344;50.364;8.944;2023-04-16T07:27:21;9.50;82.30
29353;DHT22;16344;50.364;8.944;2023-04-16T07:29:46;9.70;80.90
29353;DHT22;16344;50.364;8.944;2023-04-16T07:32:14;9.70;80.90
29353;DHT22;16344;50.364;8.944;2023-04-16T07:34:40;9.80;77.70
29353;DHT22;16344;50.364;8.944;2023-04-16T07:37:06;9.90;72.20
29353;DHT22;16344;50.364;8.944;2023-04-16T07:39:31;10.00;69.50
29353;DHT22;16344;50.364;8.944;2023-04-16T07:41:57;10.00;69.30
29353;DHT22;16344;50.364;8.944;2023-04-16T07:44:22;10.00;65.20
29353;DHT22;16344;50.364;8.944;2023-04-16T07:46:48;10.10;67.70
29353;DHT22;16344;50.364;8.944;2023-04-16T07:49:13;10.00;63.50
29353;DHT22;16344;50.364;8.944;2023-04-16T07:51:39;10.00;64.60
29353;DHT22;16344;50.364;8.944;2023-04-16T07:54:05;10.00;62.10
29353;DHT22;16344;50.364;8.944;2023-04-16T07:56:30;10.00;59.60
29353;DHT22;16344;50.364;8.944;2023-04-16T07:58:56;10.10;61.10
29353;DHT22;16344;50.364;8.944;2023-04-16T08:01:21;10.20;60.60
29353;DHT22;16344;50.364;8.944;2023-04-16T08:03:47;10.20;57.70
29353;DHT22;16344;50.364;8.944;2023-04-16T08:06:12;10.20;49.00
29353;DHT22;16344;50.364;8.944;2023-04-16T08:08:38;10.20;50.10
29353;DHT22;16344;50.364;8.944;2023-04-16T08:11:03;10.20;50.40
29353;DHT22;16344;50.364;8.944;2023-04-16T08:13:29;10.20;51.00
29353;DHT22;16344;50.364;8.944;2023-04-16T08:15:55;10.20;50.30
29353;DHT22;16344;50.364;8.944;2023-04-16T08:18:20;10.20;47.10
29353;DHT22;16344;50.364;8.944;2023-04-16T08:20:46;10.20;50.80
29353;DHT22;16344;50.364;8.944;2023-04-16T08:23:11;10.30;50.90
29353;DHT22;16344;50.364;8.944;2023-04-16T08:25:37;10.30;55.90
29353;DHT22;16344;50.364;8.944;2023-04-16T08:28:02;10.40;52.10
29353;DHT22;16344;50.364;8.944;2023-04-16T08:30:28;10.40;44.70
29353;DHT22;16344;50.364;8.944;2023-04-16T08:32:53;10.50;47.40
29353;DHT22;16344;50.364;8.944;2023-04-16T08:35:19;10.50;42.60
29353;DHT22;16344;50.364;8.944;2023-04-16T08:37:45;10.50;38.00
29353;DHT22;16344;50.364;8.944;2023-04-16T08:40:11;10.60;37.20
29353;DHT22;16344;50.364;8.944;2023-04-16T08:43:01;10.60;30.80
29353;DHT22;16344;50.364;8.944;2023-04-16T08:45:32;10.60;30.50
29353;DHT22;16344;50.364;8.944;2023-04-16T08:47:59;10.50;29.70
29353;DHT22;16344;50.364;8.944;2023-04-16T08:50:26;10.50;33.00
29353;DHT22;16344;50.364;8.944;2023-04-16T08:52:57;10.50;34.30
29353;DHT22;16344;50.364;8.944;2023-04-16T08:55:29;10.50;29.90
29353;DHT22;16344;50.364;8.944;2023-04-16T08:58:00;10.40;32.80
29353;DHT22;16344;50.364;8.944;2023-04-16T09:00:28;10.40;35.40
29353;DHT22;16344;50.364;8.944;2023-04-16T09:02:55;10.40;34.90
29353;DHT22;16344;50.364;8.944;2023-04-16T09:05:21;10.50;34.00
29353;DHT22;16344;50.364;8.944;2023-04-16T09:07:51;10.50;35.20
29353;DHT22;16344;50.364;8.944;2023-04-16T09:10:18;10.50;33.50
29353;DHT22;16344;50.364;8.944;2023-04-16T09:12:44;10.60;33.50
29353;DHT22;16344;50.364;8.944;2023-04-16T09:15:11;10.60;29.40
29353;DHT22;16344;50.364;8.944;2023-04-16T09:17:37;10.60;27.00
29353;DHT22;16344;50.364;8.944;2023-04-16T09:20:05;10.60;29.90
29353;DHT22;16344;50.364;8.944;2023-04-16T09:22:33;10.60;28.50
29353;DHT22;16344;50.364;8.944;2023-04-16T09:24:58;10.60;24.30
29353;DHT22;16344;50.364;8.944;2023-04-16T09:27:24;10.60;24.10
29353;DHT22;16344;50.364;8.944;2023-04-16T09:29:50;10.70;28.60
29353;DHT22;16344;50.364;8.944;2023-04-16T09:32:15;10.70;26.80
29353;DHT22;16344;50.364;8.944;2023-04-16T09:34:59;10.70;26.40
29353;DHT22;16344;50.364;8.944;2023-04-16T09:37:27;10.70;22.30
29353;DHT22;16344;50.364;8.944;2023-04-16T09:39:58;10.70;22.90
29353;DHT22;16344;50.364;8.944;2023-04-16T09:42:27;10.80;25.00
29353;DHT22;16344;50.364;8.944;2023-04-16T09:44:53;10.70;11.00
29353;DHT22;16344;50.364;8.944;2023-04-16T09:47:20;10.80;12.00
29353;DHT22;16344;50.364;8.944;2023-04-16T09:49:46;10.70;13.70
29353;DHT22;16344;50.364;8.944;2023-04-16T09:52:16;10.80;17.60
29353;DHT22;16344;50.364;8.944;2023-04-16T09:54:49;10.80;17.50
29353;DHT22;16344;50.364;8.944;2023-04-16T09:57:18;10.80;12.50
29353;DHT22;16344;50.364;8.944;2023-04-16T09:59:45;10.80;16.80
29353;DHT22;16344;50.364;8.944;2023-04-16T10:02:11;10.70;16.30
29353;DHT22;16344;50.364;8.944;2023-04-16T10:04:45;10.60;19.10
29353;DHT22;16344;50.364;8.944;2023-04-16T10:07:10;10.60;23.10
29353;DHT22;16344;50.364;8.944;2023-04-16T10:09:38;10.70;21.80
29353;DHT22;16344;50.364;8.944;2023-04-16T10:12:04;10.70;21.00
29353;DHT22;16344;50.364;8.944;2023-04-16T10:14:31;10.70;10.90
29353;DHT22;16344;50.364;8.944;2023-04-16T10:16:56;10.70;15.40
29353;DHT22;16344;50.364;8.944;2023-04-16T10:19:23;10.80;16.70
29353;DHT22;16344;50.364;8.944;2023-04-16T10:21:49;10.80;12.50
29353;DHT22;16344;50.364;8.944;2023-04-16T10:24:15;10.90;16.00
29353;DHT22;16344;50.364;8.944;2023-04-16T10:26:43;10.80;13.70
29353;DHT22;16344;50.364;8.944;2023-04-16T10:29:10;10.90;15.80
29353;DHT22;16344;50.364;8.944;2023-04-16T10:31:37;10.90;15.40
29353;DHT22;16344;50.364;8.944;2023-04-16T10:34:04;10.90;14.80
29353;DHT22;16344;50.364;8.944;2023-04-16T10:36:35;10.90;13.60
29353;DHT22;16344;50.364;8.944;2023-04-16T10:39:01;10.90;13.60
29353;DHT22;16344;50.364;8.944;2023-04-16T10:41:27;10.80;14.90
29353;DHT22;16344;50.364;8.944;2023-04-16T10:44:04;10.80;16.70
29353;DHT22;16344;50.364;8.944;2023-04-16T10:46:40;10.80;14.50
29353;DHT22;16344;50.364;8.944;2023-04-16T10:49:19;10.80;19.70
29353;DHT22;16344;50.364;8.944;2023-04-16T10:54:25;10.80;17.80
29353;DHT22;16344;50.364;8.944;2023-04-16T10:56:52;10.80;16.50
29353;DHT22;16344;50.364;8.944;2023-04-16T10:59:22;10.80;18.90
29353;DHT22;16344;50.364;8.944;2023-04-16T11:01:54;10.80;18.60
29353;DHT22;16344;50.364;8.944;2023-04-16T11:10:02;10.70;15.30
29353;DHT22;16344;50.364;8.944;2023-04-16T11:15:10;10.70;24.60
29353;DHT22;16344;50.364;8.944;2023-04-16T11:17:46;10.60;26.70
29353;DHT22;16344;50.364;8.944;2023-04-16T11:20:17;10.70;27.20
29353;DHT22;16344;50.364;8.944;2023-04-16T11:22:43;10.60;23.30
29353;DHT22;16344;50.364;8.944;2023-04-16T11:25:12;10.60;28.60
29353;DHT22;16344;50.364;8.944;2023-04-16T11:27:38;10.50;28.50
29353;DHT22;16344;50.364;8.944;2023-04-16T11:30:06;10.50;25.60
29353;DHT22;16344;50.364;8.944;2023-04-16T11:32:35;10.40;24.00
29353;DHT22;16344;50.364;8.944;2023-04-16T11:35:04;10.40;24.80
29353;DHT22;16344;50.364;8.944;2023-04-16T11:37:34;10.30;29.20
29353;DHT22;16344;50.364;8.944;2023-04-16T11:40:01;10.40;27.40
29353;DHT22;16344;50.364;8.944;2023-04-16T11:42:29;10.30;24.90
29353;DHT22;16344;50.364;8.944;2023-04-16T11:44:56;10.30;33.70
29353;DHT22;16344;50.364;8.944;2023-04-16T11:47:23;10.30;32.00
29353;DHT22;16344;50.364;8.944;2023-04-16T11:49:49;10.30;34.40
29353;DHT22;16344;50.364;8.944;2023-04-16T11:52:28;10.30;35.60
29353;DHT22;16344;50.364;8.944;2023-04-16T11:54:54;10.40;39.00
29353;DHT22;16344;50.364;8.944;2023-04-16T11:57:32;10.30;40.80
29353;DHT22;16344;50.364;8.944;2023-04-16T11:59:59;10.40;40.40
29353;DHT22;16344;50.364;8.944;2023-04-16T12:02:45;10.40;46.70
29353;DHT22;16344;50.364;8.944;2023-04-16T12:05:34;10.40;44.80
29353;DHT22;16344;50.364;8.944;2023-04-16T12:08:08;10.40;44.90
29353;DHT22;16344;50.364;8.944;2023-04-16T12:10:52;10.40;49.00
29353;DHT22;16344;50.364;8.944;2023-04-16T12:13:18;10.50;52.50
29353;DHT22;16344;50.364;8.944;2023-04-16T12:15:45;10.60;55.40
29353;DHT22;16344;50.364;8.944;2023-04-16T12:18:11;10.60;54.10
29353;DHT22;16344;50.364;8.944;2023-04-16T12:20:41;10.60;56.70
29353;DHT22;16344;50.364;8.944;2023-04-16T12:23:06;10.70;58.80
29353;DHT22;16344;50.364;8.944;2023-04-16T12:25:33;10.80;55.30
29353;DHT22;16344;50.364;8.944;2023-04-16T12:27:58;10.70;42.20
29353;DHT22;16344;50.364;8.944;2023-04-16T12:30:25;10.70;41.10
29353;DHT22;16344;50.364;8.944;2023-04-16T12:33:12;10.80;43.00
29353;DHT22;16344;50.364;8.944;2023-04-16T12:35:38;10.80;29.10
29353;DHT22;16344;50.364;8.944;2023-04-16T12:38:06;10.90;23.40
29353;DHT22;16344;50.364;8.944;2023-04-16T12:40:32;10.90;32.20
29353;DHT22;16344;50.364;8.944;2023-04-16T12:42:58;11.00;28.60
29353;DHT22;16344;50.364;8.944;2023-04-16T12:45:24;11.10;30.00
29353;DHT22;16344;50.364;8.944;2023-04-16T12:47:50;11.20;28.60
29353;DHT22;16344;50.364;8.944;2023-04-16T12:50:16;11.20;27.30
29353;DHT22;16344;50.364;8.944;2023-04-16T12:52:41;11.40;22.10
29353;DHT22;16344;50.364;8.944;2023-04-16T12:55:07;11.50;12.70
29353;DHT22;16344;50.364;8.944;2023-04-16T12:57:33;11.60;13.00
29353;DHT22;16344;50.364;8.944;2023-04-16T12:59:59;11.70;6.70
29353;DHT22;16344;50.364;8.944;2023-04-16T13:02:24;11.70;4.80
29353;DHT22;16344;50.364;8.944;2023-04-16T13:04:51;11.80;17.00
29353;DHT22;16344;50.364;8.944;2023-04-16T13:07:17;11.90;9.40
29353;DHT22;16344;50.364;8.944;2023-04-16T13:09:43;12.00;1.00
29353;DHT22;16344;50.364;8.944;2023-04-16T13:12:08;12.00;1.00
29353;DHT22;16344;50.364;8.944;2023-04-16T13:14:34;12.00;1.00
29353;DHT22;16344;50.364;8.944;2023-04-16T13:17:00;12.10;1.00
29353;DHT22;16344;50.364;8.944;2023-04-16T13:19:25;12.20;1.00
29353;DHT22;16344;50.364;8.944;2023-04-16T13:21:51;12.20;1.00
29353;DHT22;16344;50.364;8.944;2023-04-16T13:24:17;12.30;1.00
29353;DHT22;16344;50.364;8.944;2023-04-16T13:26:43;12.30;1.00
29353;DHT22;16344;50.364;8.944;2023-04-16T13:29:09;12.30;1.00
29353;DHT22;16344;50.364;8.944;2023-04-16T13:31:35;12.30;1.00
29353;DHT22;16344;50.364;8.944;2023-04-16T13:34:00;12.30;1.00
29353;DHT22;16344;50.364;8.944;2023-04-16T13:36:26;12.30;1.00
29353;DHT22;16344;50.364;8.944;2023-04-16T13:38:51;12.30;1.00
29353;DHT22;16344;50.364;8.944;2023-04-16T13:41:17;12.40;1.00
29353;DHT22;16344;50.364;8.944;2023-04-16T13:43:43;12.40;1.00
29353;DHT22;16344;50.364;8.944;2023-04-16T13:46:08;12.40;1.00
29353;DHT22;16344;50.364;8.944;2023-04-16T13:48:34;12.40;1.00
29353;DHT22;16344;50.364;8.944;2023-04-16T13:50:59;12.40;1.00
29353;DHT22;16344;50.364;8.944;2023-04-16T13:53:25;12.40;1.00
29353;DHT22;16344;50.364;8.944;2023-04-16T13:55:50;12.30;1.00
29353;DHT22;16344;50.364;8.944;2023-04-16T13:58:16;12.40;1.00
29353;DHT22;16344;50.364;8.944;2023-04-16T14:00:42;12.30;1.00
29353;DHT22;16344;50.364;8.944;2023-04-16T14:03:07;12.30;1.00
29353;DHT22;16344;50.364;8.944;2023-04-16T14:05:33;12.30;1.00
29353;DHT22;16344;50.364;8.944;2023-04-16T14:07:58;12.30;1.00
29353;DHT22;16344;50.364;8.944;2023-04-16T14:10:24;12.40;1.00
29353;DHT22;16344;50.364;8.944;2023-04-16T14:12:50;12.40;1.00
29353;DHT22;16344;50.364;8.944;2023-04-16T14:15:16;12.40;1.00
29353;DHT22;16344;50.364;8.944;2023-04-16T14:17:43;12.40;1.00
29353;DHT22;16344;50.364;8.944;2023-04-16T14:20:10;12.30;1.00
29353;DHT22;16344;50.364;8.944;2023-04-16T14:22:36;12.40;1.00
29353;DHT22;16344;50.364;8.944;2023-04-16T14:25:02;12.40;1.00
29353;DHT22;16344;50.364;8.944;2023-04-16T14:27:29;12.40;1.00
29353;DHT22;16344;50.364;8.944;2023-04-16T14:29:55;12.40;1.00
29353;DHT22;16344;50.364;8.944;2023-04-16T14:32:20;12.30;1.00
29353;DHT22;16344;50.364;8.944;2023-04-16T14:34:46;12.30;1.00
29353;DHT22;16344;50.364;8.944;2023-04-16T14:37:11;12.40;1.00
29353;DHT22;16344;50.364;8.944;2023-04-16T14:39:37;12.30;1.00
29353;DHT22;16344;50.364;8.944;2023-04-16T14:42:04;12.40;1.00
29353;DHT22;16344;50.364;8.944;2023-04-16T14:44:30;12.40;1.00
29353;DHT22;16344;50.364;8.944;2023-04-16T14:46:56;12.50;1.00
29353;DHT22;16344;50.364;8.944;2023-04-16T14:49:22;12.40;1.00
29353;DHT22;16344;50.364;8.944;2023-04-16T14:51:47;12.30;1.00
29353;DHT22;16344;50.364;8.944;2023-04-16T14:54:13;12.30;1.00
29353;DHT22;16344;50.364;8.944;2023-04-16T14:56:39;12.20;1.00
29353;DHT22;16344;50.364;8.944;2023-04-16T14:59:05;12.30;1.00
29353;DHT22;16344;50.364;8.944;2023-04-16T15:01:32;12.30;1.00
29353;DHT22;16344;50.364;8.944;2023-04-16T15:03:58;12.30;1.00
29353;DHT22;16344;50.364;8.944;2023-04-16T15:06:23;12.30;1.00
29353;DHT22;16344;50.364;8.944;2023-04-16T15:08:49;12.20;1.00
29353;DHT22;16344;50.364;8.944;2023-04-16T15:11:15;12.30;4.90
29353;DHT22;16344;50.364;8.944;2023-04-16T15:13:40;12.30;4.50
29353;DHT22;16344;50.364;8.944;2023-04-16T15:16:06;12.20;5.30
29353;DHT22;16344;50.364;8.944;2023-04-16T15:18:32;12.10;9.90
29353;DHT22;16344;50.364;8.944;2023-04-16T15:20:57;12.00;17.90
29353;DHT22;16344;50.364;8.944;2023-04-16T15:23:23;11.90;25.40
29353;DHT22;16344;50.364;8.944;2023-04-16T15:25:49;11.90;30.30
29353;DHT22;16344;50.364;8.944;2023-04-16T15:28:14;11.80;37.50
29353;DHT22;16344;50.364;8.944;2023-04-16T15:30:40;11.70;39.40
29353;DHT22;16344;50.364;8.944;2023-04-16T15:33:06;11.70;41.80
29353;DHT22;16344;50.364;8.944;2023-04-16T15:35:33;11.70;45.10
29353;DHT22;16344;50.364;8.944;2023-04-16T15:37:59;11.60;40.50
29353;DHT22;16344;50.364;8.944;2023-04-16T15:40:25;11.60;39.60
29353;DHT22;16344;50.364;8.944;2023-04-16T15:42:50;11.60;44.10
29353;DHT22;16344;50.364;8.944;2023-04-16T15:45:16;11.60;48.00
29353;DHT22;16344;50.364;8.944;2023-04-16T15:47:41;11.60;49.00